createdAt,value
2019-06-08T00:00:06.992Z,0.97
2019-06-08T00:03:09.295Z,0.90
2019-06-08T00:06:12.623Z,1.10
2019-06-08T00:09:14.710Z,1.00
2019-06-08T00:12:16.949Z,0.90
2019-06-08T00:15:18.634Z,1.10
2019-06-08T00:18:21.532Z,1.23
2019-06-08T00:21:24.137Z,1.03
2019-06-08T00:24:25.152Z,1.10
2019-06-08T00:27:27.393Z,1.10
2019-06-08T00:30:30.718Z,1.10
2019-06-08T00:33:31.939Z,1.07
2019-06-08T00:36:34.247Z,1.10
2019-06-08T00:39:36.491Z,1.10
2019-06-08T00:42:38.731Z,1.23
2019-06-08T00:45:40.968Z,1.10
2019-06-08T00:48:43.215Z,0.90
2019-06-08T00:51:45.428Z,0.80
2019-06-08T00:54:47.673Z,1.20
2019-06-08T00:57:49.950Z,1.03
2019-06-08T01:00:52.233Z,1.03
2019-06-08T01:03:54.517Z,0.93
2019-06-08T01:06:56.767Z,1.10
2019-06-08T01:09:59.013Z,1.10
2019-06-08T01:13:01.237Z,1.03
2019-06-08T01:16:03.511Z,0.97
2019-06-08T01:19:05.755Z,1.10
2019-06-08T01:22:08.007Z,1.30
2019-06-08T01:25:10.265Z,1.07
2019-06-08T01:28:12.509Z,0.90
2019-06-08T01:31:14.857Z,1.00
2019-06-08T01:34:17.075Z,0.80
2019-06-08T01:37:20.931Z,0.97
2019-06-08T01:40:21.679Z,0.97
2019-06-08T01:43:24.068Z,0.90
2019-06-08T01:46:26.326Z,0.80
2019-06-08T01:49:28.577Z,0.80
2019-06-08T01:52:30.943Z,0.70
2019-06-08T01:55:33.310Z,1.00
2019-06-08T01:58:35.315Z,0.80
2019-06-08T02:01:37.539Z,0.93
2019-06-08T02:04:39.768Z,0.80
2019-06-08T02:07:42.011Z,0.70
2019-06-08T02:10:44.265Z,0.60
2019-06-08T02:13:46.527Z,0.80
2019-06-08T02:16:48.747Z,0.70
2019-06-08T02:19:50.959Z,0.60
2019-06-08T02:22:53.190Z,0.50
2019-06-08T02:25:55.435Z,0.60
2019-06-08T02:28:57.676Z,0.50
2019-06-08T02:31:59.904Z,0.73
2019-06-08T02:35:02.198Z,0.80
2019-06-08T02:38:04.519Z,0.70
2019-06-08T02:41:06.771Z,1.00
2019-06-08T02:44:09.018Z,0.60
2019-06-08T02:47:11.285Z,0.60
2019-06-08T02:50:13.566Z,0.80
2019-06-08T02:53:16.240Z,0.63
2019-06-08T02:56:18.492Z,0.73
2019-06-08T02:59:20.865Z,0.70
2019-06-08T03:02:24.115Z,0.70
2019-06-08T03:05:26.417Z,0.67
2019-06-08T03:08:28.699Z,0.70
2019-06-08T03:11:32.543Z,0.60
2019-06-08T03:14:33.433Z,0.60
2019-06-08T03:17:35.639Z,0.70
2019-06-08T03:20:37.926Z,0.50
2019-06-08T03:23:41.541Z,0.70
2019-06-08T03:26:44.136Z,0.57
2019-06-08T03:29:44.525Z,0.70
2019-06-08T03:32:55.078Z,0.90
2019-06-08T03:35:57.342Z,0.50
2019-06-08T03:38:51.214Z,0.80
2019-06-08T03:41:53.416Z,0.70
2019-06-08T03:44:55.689Z,0.80
2019-06-08T03:47:57.952Z,0.73
2019-06-08T03:51:00.203Z,0.80
2019-06-08T03:54:02.464Z,0.70
2019-06-08T03:57:04.697Z,0.80
2019-06-08T04:00:12.933Z,0.60
2019-06-08T04:03:09.279Z,0.90
2019-06-08T04:06:11.527Z,0.70
2019-06-08T04:09:13.805Z,0.80
2019-06-08T04:12:16.077Z,0.70
2019-06-08T04:15:18.368Z,0.90
2019-06-08T04:18:20.650Z,1.00
2019-06-08T04:21:22.879Z,0.70
2019-06-08T04:24:25.173Z,0.80
2019-06-08T04:27:27.475Z,0.90
2019-06-08T04:30:29.692Z,0.70
2019-06-08T04:33:31.940Z,0.80
2019-06-08T04:36:34.160Z,0.80
2019-06-08T04:39:38.242Z,0.70
2019-06-08T04:42:39.351Z,0.70
2019-06-08T04:45:41.578Z,0.70
2019-06-08T04:48:45.078Z,0.63
2019-06-08T04:51:47.148Z,0.77
2019-06-08T04:54:49.649Z,0.70
2019-06-08T04:57:50.777Z,0.60
2019-06-08T05:00:52.045Z,0.77
2019-06-08T05:03:54.345Z,0.83
2019-06-08T05:06:56.601Z,0.80
2019-06-08T05:09:58.911Z,0.60
2019-06-08T05:13:01.195Z,0.70
2019-06-08T05:16:03.665Z,0.70
2019-06-08T05:19:05.799Z,0.90
2019-06-08T05:22:08.065Z,0.70
2019-06-08T05:25:10.339Z,0.73
2019-06-08T05:28:12.582Z,0.90
2019-06-08T05:31:14.896Z,0.70
2019-06-08T05:34:17.124Z,0.83
2019-06-08T05:37:19.376Z,0.80
2019-06-08T05:40:21.591Z,0.70
2019-06-08T05:43:24.345Z,0.80
2019-06-08T05:46:26.609Z,0.90
2019-06-08T05:49:28.819Z,0.60
2019-06-08T05:52:31.015Z,0.80
2019-06-08T05:55:33.298Z,0.60
2019-06-08T05:58:35.556Z,0.87
2019-06-08T06:01:37.825Z,0.77
2019-06-08T06:04:40.920Z,0.60
2019-06-08T06:07:42.675Z,0.70
2019-06-08T06:10:44.905Z,0.80
2019-06-08T06:13:47.426Z,0.70
2019-06-08T06:16:49.351Z,0.80
2019-06-08T06:19:51.658Z,0.80
2019-06-08T06:22:53.898Z,0.73
2019-06-08T06:25:56.171Z,0.73
2019-06-08T06:28:58.403Z,0.70
2019-06-08T06:32:00.620Z,0.97
2019-06-08T06:35:03.012Z,0.90
2019-06-08T06:38:05.257Z,0.80
2019-06-08T06:41:07.542Z,1.00
2019-06-08T06:44:09.812Z,0.80
2019-06-08T06:47:12.086Z,0.97
2019-06-08T06:50:14.354Z,0.80
2019-06-08T06:53:16.615Z,0.90
2019-06-08T06:56:18.854Z,0.70
2019-06-08T06:59:21.114Z,1.07
2019-06-08T07:02:23.513Z,0.80
2019-06-08T07:05:25.776Z,0.90
2019-06-08T07:08:28.068Z,1.07
2019-06-08T07:11:30.326Z,0.90
2019-06-08T07:14:32.681Z,0.70
2019-06-08T07:17:34.963Z,1.10
2019-06-08T07:20:37.266Z,0.90
2019-06-08T07:23:39.511Z,0.80
2019-06-08T07:26:41.747Z,0.90
2019-06-08T07:29:43.952Z,0.90
2019-06-08T07:32:46.520Z,0.87
2019-06-08T07:35:49.861Z,0.90
2019-06-08T07:38:51.409Z,0.80
2019-06-08T07:41:54.274Z,0.83
2019-06-08T07:44:55.256Z,0.80
2019-06-08T07:47:57.529Z,0.80
2019-06-08T07:50:59.756Z,1.00
2019-06-08T07:54:02.085Z,1.20
2019-06-08T07:57:04.320Z,0.93
2019-06-08T08:00:09.424Z,0.77
2019-06-08T08:03:08.906Z,0.90
2019-06-08T08:06:11.241Z,0.80
2019-06-08T08:09:13.556Z,0.90
2019-06-08T08:12:15.852Z,1.10
2019-06-08T08:15:18.141Z,1.00
2019-06-08T08:18:20.412Z,1.03
2019-06-08T08:21:26.185Z,1.00
2019-06-08T08:24:27.092Z,0.90
2019-06-08T08:27:28.054Z,1.10
2019-06-08T08:30:29.521Z,1.00
2019-06-08T08:33:31.785Z,1.03
2019-06-08T08:36:34.065Z,1.07
2019-06-08T08:39:37.690Z,1.00
2019-06-08T08:42:41.498Z,0.80
2019-06-08T08:45:43.790Z,0.80
2019-06-08T08:48:48.559Z,0.90
2019-06-08T08:51:48.351Z,1.13
2019-06-08T08:54:51.205Z,0.93
2019-06-08T08:57:53.641Z,1.10
2019-06-08T09:00:55.364Z,0.90
2019-06-08T09:04:01.682Z,1.20
2019-06-08T09:07:05.540Z,1.13
2019-06-08T09:10:03.606Z,1.00
2019-06-08T09:13:04.787Z,1.03
2019-06-08T09:16:08.113Z,0.97
2019-06-08T09:19:09.097Z,1.17
2019-06-08T09:22:11.333Z,1.00
2019-06-08T09:25:13.782Z,0.87
2019-06-08T09:28:18.364Z,1.00
2019-06-08T09:31:18.777Z,1.00
2019-06-08T09:34:20.617Z,0.87
2019-06-08T09:37:22.842Z,1.00
2019-06-08T09:40:26.637Z,0.90
2019-06-08T09:43:28.922Z,1.20
2019-06-08T09:46:29.593Z,0.90
2019-06-08T09:49:31.879Z,1.10
2019-06-08T09:52:34.144Z,1.30
2019-06-08T09:55:38.156Z,1.10
2019-06-08T09:58:39.068Z,0.90
2019-06-08T10:01:40.954Z,1.13
2019-06-08T10:04:43.188Z,1.07
2019-06-08T10:07:45.441Z,1.33
2019-06-08T10:10:48.391Z,1.00
2019-06-08T10:13:50.021Z,1.07
2019-06-08T10:16:52.359Z,1.00
2019-06-08T10:19:54.766Z,1.30
2019-06-08T10:22:59.698Z,0.90
2019-06-08T10:26:01.367Z,1.07
2019-06-08T10:29:04.108Z,1.30
2019-06-08T10:32:03.936Z,0.90
2019-06-08T10:35:07.939Z,1.03
2019-06-08T10:38:11.913Z,1.10
2019-06-08T10:41:17.200Z,0.90
2019-06-08T10:44:14.365Z,1.10
2019-06-08T10:47:15.400Z,1.00
2019-06-08T10:50:19.214Z,1.03
2019-06-08T10:53:19.927Z,1.10
2019-06-08T10:56:22.174Z,1.17
2019-06-08T10:59:24.692Z,1.23
2019-06-08T11:02:28.100Z,0.93
2019-06-08T11:05:29.224Z,1.03
2019-06-08T11:08:31.465Z,1.10
2019-06-08T11:11:33.757Z,1.10
2019-06-08T11:14:38.265Z,1.27
2019-06-08T11:17:38.252Z,0.97
2019-06-08T11:20:40.501Z,0.90
2019-06-08T11:23:42.764Z,1.13
2019-06-08T11:26:47.715Z,1.00
2019-06-08T11:29:47.710Z,1.10
2019-06-08T11:32:49.512Z,1.00
2019-06-08T11:35:51.759Z,0.80
2019-06-08T11:38:54.008Z,0.73
2019-06-08T11:41:58.646Z,1.00
2019-06-08T11:44:59.027Z,1.17
2019-06-08T11:48:02.629Z,1.00
2019-06-08T11:51:04.701Z,1.10
2019-06-08T11:54:25.540Z,0.90
2019-06-08T11:57:11.702Z,1.00
2019-06-08T12:00:24.134Z,0.77
2019-06-08T12:03:16.547Z,1.00
2019-06-08T12:06:19.157Z,0.90
2019-06-08T12:09:21.555Z,0.83
2019-06-08T12:12:24.139Z,1.10
2019-06-08T12:15:28.644Z,0.83
2019-06-08T12:18:29.184Z,1.00
2019-06-08T12:21:31.589Z,0.90
2019-06-08T12:24:42.152Z,1.00
2019-06-08T12:27:40.013Z,1.23
2019-06-08T12:33:58.788Z,1.20
2019-06-08T12:36:59.484Z,1.10
2019-06-08T12:40:01.961Z,1.23
2019-06-08T12:43:04.472Z,1.00
2019-06-08T12:46:10.694Z,0.90
2019-06-08T12:49:11.263Z,1.00
2019-06-08T12:52:12.901Z,1.10
2019-06-08T12:55:19.997Z,1.10
2019-06-08T12:58:20.572Z,1.20
2019-06-08T13:01:19.851Z,0.90
2019-06-08T13:04:23.877Z,0.80
2019-06-08T13:07:24.844Z,1.20
2019-06-08T13:10:27.841Z,1.03
2019-06-08T13:13:29.937Z,1.00
2019-06-08T13:16:32.372Z,1.00
2019-06-08T13:19:34.610Z,1.07
2019-06-08T13:22:39.089Z,1.00
2019-06-08T13:25:43.458Z,1.10
2019-06-08T13:28:41.649Z,1.10
2019-06-08T13:31:44.117Z,1.17
2019-06-08T13:34:47.304Z,1.20
2019-06-08T13:37:49.058Z,1.07
2019-06-08T13:40:51.532Z,1.10
2019-06-08T13:43:53.791Z,1.00
2019-06-08T13:46:57.775Z,1.27
2019-06-08T13:49:58.349Z,1.00
2019-06-08T13:53:00.588Z,1.20
2019-06-08T13:56:02.857Z,1.07
2019-06-08T13:59:05.104Z,1.03
2019-06-08T14:02:07.352Z,1.10
2019-06-08T14:05:09.624Z,1.10
2019-06-08T14:08:11.887Z,1.10
2019-06-08T14:11:14.568Z,1.17
2019-06-08T14:14:17.683Z,0.93
2019-06-08T14:17:20.904Z,1.23
2019-06-08T14:20:24.713Z,1.10
2019-06-08T14:23:25.887Z,1.23
2019-06-08T14:26:28.107Z,1.10
2019-06-08T14:29:30.556Z,1.10
2019-06-08T14:32:32.799Z,1.20
2019-06-08T14:35:35.034Z,1.20
2019-06-08T14:38:41.812Z,1.17
2019-06-08T14:41:39.504Z,1.00
2019-06-08T14:44:41.700Z,0.80
2019-06-08T14:47:44.061Z,1.07
2019-06-08T14:50:48.062Z,0.93
2019-06-08T14:53:49.006Z,1.10
2019-06-08T14:56:51.483Z,1.10
2019-06-08T14:59:56.308Z,1.20
2019-06-08T15:02:58.634Z,1.23
2019-06-08T15:05:59.419Z,1.20
2019-06-08T15:09:01.796Z,1.00
2019-06-08T15:12:04.406Z,1.10
2019-06-08T15:15:08.348Z,1.10
2019-06-08T15:18:11.087Z,1.10
2019-06-08T15:21:11.265Z,1.20
2019-06-08T15:24:13.478Z,1.30
2019-06-08T15:27:20.896Z,1.20
2019-06-08T15:30:18.043Z,1.20
2019-06-08T15:33:21.546Z,1.30
2019-06-08T15:36:23.493Z,1.10
2019-06-08T15:39:26.140Z,1.27
2019-06-08T15:42:29.137Z,1.10
2019-06-08T15:45:32.316Z,1.30
2019-06-08T15:48:32.843Z,1.20
2019-06-08T15:51:37.658Z,1.30
2019-06-08T15:54:40.438Z,1.63
2019-06-08T15:57:41.020Z,1.27
2019-06-08T16:00:40.789Z,1.20
2019-06-08T16:03:43.089Z,1.30
2019-06-08T16:06:45.366Z,1.20
2019-06-08T16:09:47.625Z,1.30
2019-06-08T16:12:49.904Z,1.30
2019-06-08T16:15:52.151Z,1.20
2019-06-08T16:18:54.416Z,1.00
2019-06-08T16:21:56.673Z,1.10
2019-06-08T16:24:58.912Z,1.43
2019-06-08T16:28:01.108Z,1.20
2019-06-08T16:31:05.460Z,1.30
2019-06-08T16:34:05.654Z,1.23
2019-06-08T16:37:07.942Z,1.40
2019-06-08T16:40:10.183Z,1.50
2019-06-08T16:43:12.385Z,1.30
2019-06-08T16:46:14.682Z,1.00
2019-06-08T16:49:16.904Z,1.27
2019-06-08T16:52:19.126Z,1.20
2019-06-08T16:55:21.371Z,1.53
2019-06-08T16:58:23.584Z,1.50
2019-06-08T17:01:25.810Z,1.00
2019-06-08T17:04:28.832Z,1.40
2019-06-08T17:07:32.182Z,1.27
2019-06-08T17:10:32.621Z,1.47
2019-06-08T17:13:36.016Z,1.30
2019-06-08T17:16:38.401Z,1.40
2019-06-08T17:19:40.353Z,1.30
2019-06-08T17:22:41.557Z,1.20
2019-06-08T17:25:43.791Z,1.50
2019-06-08T17:28:46.324Z,1.50
2019-06-08T17:31:48.822Z,1.33
2019-06-08T17:34:51.183Z,1.50
2019-06-08T17:37:53.649Z,1.57
2019-06-08T17:40:56.006Z,1.83
2019-06-08T17:43:59.066Z,1.80
2019-06-08T17:47:01.422Z,2.00
2019-06-08T17:50:04.106Z,1.40
2019-06-08T17:53:06.526Z,1.57
2019-06-08T17:56:08.897Z,1.60
2019-06-08T17:59:11.314Z,1.57
2019-06-08T18:02:21.333Z,1.70
2019-06-08T18:05:17.965Z,1.53
2019-06-08T18:08:19.121Z,1.70
2019-06-08T18:11:21.573Z,1.70
2019-06-08T18:14:23.951Z,1.40
2019-06-08T18:17:27.856Z,1.77
2019-06-08T18:20:30.089Z,1.77
2019-06-08T18:23:32.371Z,1.80
2019-06-08T18:26:34.634Z,1.80
2019-06-08T18:29:39.185Z,2.20
2019-06-08T18:32:40.678Z,1.93
2019-06-08T18:35:43.384Z,2.10
2019-06-08T18:38:44.613Z,1.87
2019-06-08T18:41:48.246Z,1.60
2019-06-08T18:44:48.617Z,1.80
2019-06-08T18:47:50.526Z,2.40
2019-06-08T18:50:52.755Z,2.13
2019-06-08T18:54:08.509Z,1.90
2019-06-08T18:56:57.294Z,1.53
2019-06-08T18:59:59.507Z,2.20
2019-06-08T19:03:01.747Z,1.80
2019-06-08T19:06:04.022Z,2.00
2019-06-08T19:09:07.600Z,1.90
2019-06-08T19:12:08.608Z,2.30
2019-06-08T19:15:11.565Z,1.70
2019-06-08T19:18:13.067Z,2.10
2019-06-08T19:21:17.678Z,2.07
2019-06-08T19:24:18.284Z,2.00
2019-06-08T19:27:19.809Z,2.07
2019-06-08T19:30:24.617Z,2.40
2019-06-08T19:33:24.337Z,1.83
2019-06-08T19:36:28.402Z,2.30
2019-06-08T19:39:28.824Z,2.50
2019-06-08T19:42:39.118Z,2.20
2019-06-08T19:45:33.503Z,2.17
2019-06-08T19:48:36.168Z,2.70
2019-06-08T19:51:38.642Z,2.43
2019-06-08T19:54:43.663Z,2.20
2019-06-08T19:57:43.335Z,2.10
2019-06-08T20:00:48.096Z,2.23
2019-06-08T20:03:47.005Z,2.20
2019-06-08T20:06:50.684Z,2.57
2019-06-08T20:09:51.453Z,2.57
2019-06-08T20:12:53.710Z,2.37
2019-06-08T20:15:59.635Z,3.53
2019-06-08T20:18:58.593Z,2.70
2019-06-08T20:22:00.514Z,2.63
2019-06-08T20:25:02.827Z,2.40
2019-06-08T20:28:07.756Z,2.50
2019-06-08T20:31:07.585Z,2.13
2019-06-08T20:34:09.583Z,2.53
2019-06-08T20:37:11.792Z,2.70
2019-06-08T20:40:14.444Z,2.63
2019-06-08T20:43:17.696Z,2.60
2019-06-08T20:46:20.287Z,2.37
2019-06-08T20:49:20.834Z,2.80
2019-06-08T20:52:23.061Z,2.40
2019-06-08T20:55:25.267Z,2.40
2019-06-08T20:58:28.354Z,2.53
2019-06-08T21:01:29.759Z,2.50
2019-06-08T21:04:31.971Z,2.80
2019-06-08T21:07:34.209Z,2.87
2019-06-08T21:10:37.805Z,2.93
2019-06-08T21:13:39.047Z,2.70
2019-06-08T21:16:41.316Z,2.70
2019-06-08T21:19:44.712Z,2.73
2019-06-08T21:22:50.236Z,3.33
2019-06-08T21:25:51.745Z,3.10
2019-06-08T21:28:52.798Z,3.40
2019-06-08T21:31:55.092Z,3.10
2019-06-08T21:34:55.701Z,2.87
2019-06-08T21:38:00.825Z,2.77
2019-06-08T21:41:02.425Z,2.97
2019-06-08T21:44:02.250Z,2.40
2019-06-08T21:47:04.296Z,2.50
2019-06-08T21:50:08.118Z,2.80
2019-06-08T21:53:08.829Z,2.33
2019-06-08T21:56:11.087Z,2.53
2019-06-08T21:59:13.319Z,2.47
2019-06-08T22:02:15.578Z,2.47
2019-06-08T22:05:17.885Z,2.67
2019-06-08T22:08:20.083Z,2.53
2019-06-08T22:11:22.310Z,3.40
2019-06-08T22:14:24.554Z,2.63
2019-06-08T22:17:27.742Z,2.90
2019-06-08T22:20:29.031Z,2.90
2019-06-08T22:23:31.212Z,2.60
2019-06-08T22:26:33.407Z,2.90
2019-06-08T22:29:38.173Z,2.70
2019-06-08T22:32:38.440Z,2.67
2019-06-08T22:35:40.148Z,2.67
2019-06-08T22:38:42.376Z,3.30
2019-06-08T22:41:44.649Z,3.00
2019-06-08T22:44:47.900Z,2.43
2019-06-08T22:47:49.071Z,2.70
2019-06-08T22:50:53.291Z,2.40
2019-06-08T22:53:54.039Z,2.47
2019-06-08T22:56:57.788Z,2.77
2019-06-08T23:00:00.135Z,2.60
2019-06-08T23:03:03.215Z,3.00
2019-06-08T23:06:03.884Z,1.93
2019-06-08T23:09:08.482Z,2.57
2019-06-08T23:12:09.480Z,2.30
2019-06-08T23:15:10.320Z,2.90
2019-06-08T23:18:12.555Z,2.33
2019-06-08T23:21:14.795Z,2.50
2019-06-08T23:24:18.091Z,2.40
2019-06-08T23:27:19.404Z,2.60
2019-06-08T23:30:21.669Z,2.63
2019-06-08T23:33:23.988Z,2.40
2019-06-08T23:36:51.840Z,2.53
2019-06-08T23:39:28.667Z,2.40
2019-06-08T23:42:30.766Z,2.43
2019-06-08T23:45:33.142Z,2.60
2019-06-08T23:48:37.446Z,2.47
2019-06-08T23:51:38.115Z,2.00
2019-06-08T23:54:39.951Z,2.00
2019-06-08T23:57:42.183Z,2.40
